Terminal Aerodrome Forecast
Issued by NWS

Home | Current Version | Previous Version | Text Only | Print | Product List | Glossary On
Versions: 1 2 3 4 5 6 7 8 9 10 11 12 13 14
970
FTUS45 KRIW 291120
TAFLND
TAF
KLND 291120Z 2912/3012 25007KT P6SM SKC
     FM291400 VRB04KT P6SM SKC
     FM292100 11007KT P6SM FEW120 SCT250
     FM300200 25007KT P6SM SKC=

USA.gov is the U.S. government's official web portal to all federal, state and local government web resources and services.